Time;durP1;ratioP1;P1;durP2;ratioP2;P2;SDS_P1;SDS_P2;PMS_P1;PMS_P2;Temp;Humidity;BMP_temperature;BMP_pressure;BME280_temperature;BME280_humidity;BME280_pressure;Samples;Min_cycle;Max_cycle;Signal;HPM_P1;HPM_P2
2023/05/04 00:02:06;;;;;;;6.20;4.07;;;8.70;1.00;;;;;;4947960;28;20206;-63
2023/05/04 00:04:33;;;;;;;7.97;4.57;;;8.70;1.00;;;;;;4968575;28;20229;-67
2023/05/04 00:07:00;;;;;;;7.73;4.20;;;8.70;1.00;;;;;;4962112;28;20203;-64
2023/05/04 00:09:27;;;;;;;6.63;4.67;;;8.60;1.00;;;;;;4953612;29;20261;-63
2023/05/04 00:11:54;;;;;;;7.70;4.00;;;8.60;1.00;;;;;;4961245;28;20241;-64
2023/05/04 00:14:21;;;;;;;9.20;4.30;;;8.60;1.00;;;;;;4953676;29;20686;-64
2023/05/04 00:16:48;;;;;;;11.00;4.87;;;8.50;1.00;;;;;;4913002;29;20215;-66
2023/05/04 00:19:17;;;;;;;10.70;4.37;;;8.50;1.00;;;;;;4951870;29;20266;-64
2023/05/04 00:21:45;;;;;;;10.53;4.30;;;8.50;1.00;;;;;;4953890;28;20202;-63
2023/05/04 00:24:12;;;;;;;7.37;5.07;;;8.40;1.00;;;;;;4954637;28;20199;-64
2023/05/04 00:26:39;;;;;;;7.70;4.80;;;8.40;1.00;;;;;;4951730;28;20603;-65
2023/05/04 00:29:06;;;;;;;8.97;4.50;;;8.30;1.00;;;;;;4938651;29;20301;-64
2023/05/04 00:31:33;;;;;;;8.17;4.67;;;8.30;1.00;;;;;;4936675;29;20235;-65
2023/05/04 00:34:00;;;;;;;6.17;4.47;;;8.30;1.00;;;;;;4926936;29;20226;-65
2023/05/04 00:36:27;;;;;;;15.00;4.90;;;8.20;1.00;;;;;;4953424;28;20254;-66
2023/05/04 00:38:54;;;;;;;7.10;4.57;;;8.20;1.00;;;;;;4947569;29;20207;-64
2023/05/04 00:41:21;;;;;;;7.77;4.70;;;8.20;1.00;;;;;;4938555;29;20253;-65
2023/05/04 00:43:48;;;;;;;8.57;4.87;;;8.10;1.00;;;;;;4947834;29;20805;-64
2023/05/04 00:46:16;;;;;;;7.53;4.83;;;8.10;1.00;;;;;;4932105;29;20243;-63
2023/05/04 00:48:45;;;;;;;12.70;4.90;;;8.20;1.00;;;;;;4929336;29;20315;-62
2023/05/04 00:51:15;;;;;;;9.50;5.03;;;8.20;1.00;;;;;;4931023;29;20506;-62
2023/05/04 00:53:42;;;;;;;12.43;5.10;;;8.20;1.00;;;;;;4931309;29;20211;-62
2023/05/04 00:56:10;;;;;;;9.47;5.20;;;8.10;1.00;;;;;;4933280;29;20195;-61
2023/05/04 00:58:37;;;;;;;10.40;5.23;;;8.10;1.00;;;;;;4947824;29;20215;-61
2023/05/04 01:01:05;;;;;;;9.23;4.63;;;8.10;1.00;;;;;;4931429;29;20274;-62
2023/05/04 01:03:33;;;;;;;7.87;4.70;;;8.00;1.00;;;;;;4959410;23;20812;-80
2023/05/04 01:06:10;;;;;;;8.83;4.80;;;8.00;1.00;;;;;;4964154;28;20612;-78
2023/05/04 01:08:42;;;;;;;11.80;4.33;;;8.00;1.00;;;;;;4977728;28;20812;-79
2023/05/04 01:11:19;;;;;;;9.17;4.60;;;7.90;1.00;;;;;;4992864;28;20272;-78
2023/05/04 01:13:48;;;;;;;6.57;4.90;;;7.90;1.00;;;;;;4987004;28;20193;-87
2023/05/04 01:16:15;;;;;;;8.53;4.73;;;7.90;1.00;;;;;;4993967;28;20292;-86
2023/05/04 01:18:42;;;;;;;9.20;4.97;;;7.90;1.00;;;;;;4976418;28;20208;-86
2023/05/04 01:21:09;;;;;;;10.17;4.47;;;7.90;1.00;;;;;;4994897;28;20216;-85
2023/05/04 01:23:37;;;;;;;9.90;4.80;;;7.80;1.00;;;;;;5000581;28;20228;-89
2023/05/04 01:26:15;;;;;;;6.40;4.33;;;7.80;1.00;;;;;;4996970;28;20267;-87
2023/05/04 01:29:07;;;;;;;13.77;5.20;;;7.70;1.00;;;;;;4995339;28;20357;-88
2023/05/04 01:31:37;;;;;;;8.03;5.00;;;7.70;1.00;;;;;;5009473;28;20240;-86
2023/05/04 01:34:06;;;;;;;8.73;5.90;;;7.70;1.00;;;;;;5004920;28;20664;-83
2023/05/04 01:36:34;;;;;;;9.73;6.00;;;7.70;1.00;;;;;;4993736;28;20208;-85
2023/05/04 01:39:02;;;;;;;8.43;5.17;;;7.70;1.00;;;;;;5013256;28;20248;-87
2023/05/04 01:41:32;;;;;;;8.50;5.50;;;7.70;1.00;;;;;;4991526;28;20185;-81
2023/05/04 01:43:59;;;;;;;11.90;5.27;;;7.70;1.00;;;;;;4985043;28;20296;-84
2023/05/04 01:46:27;;;;;;;8.73;5.27;;;7.70;1.00;;;;;;4993758;28;20687;-84
2023/05/04 01:48:54;;;;;;;5.90;5.20;;;7.70;1.00;;;;;;4975584;28;20268;-81
2023/05/04 01:51:21;;;;;;;13.20;5.37;;;7.70;1.00;;;;;;5004796;28;20260;-81
2023/05/04 01:53:50;;;;;;;7.67;4.90;;;7.70;1.00;;;;;;4991619;28;20707;-80
2023/05/04 01:56:18;;;;;;;10.07;5.43;;;7.70;1.00;;;;;;4982722;28;20615;-85
2023/05/04 01:58:45;;;;;;;7.93;5.00;;;7.60;1.00;;;;;;4982963;28;20217;-84
2023/05/04 02:01:12;;;;;;;9.87;5.57;;;7.70;1.00;;;;;;4990168;28;20233;-85
2023/05/04 02:03:39;;;;;;;9.60;4.90;;;7.70;1.00;;;;;;4982950;28;20336;-86
2023/05/04 02:06:09;;;;;;;8.33;4.93;;;7.70;1.00;;;;;;4991107;28;20214;-88
2023/05/04 02:08:39;;;;;;;9.67;5.37;;;7.70;1.00;;;;;;4977198;28;20218;-86
2023/05/04 02:11:06;;;;;;;11.50;5.40;;;7.70;1.00;;;;;;4984375;28;20199;-88
2023/05/04 02:13:35;;;;;;;7.80;4.23;;;7.70;1.00;;;;;;4970899;28;20198;-89
2023/05/04 02:16:02;;;;;;;6.87;4.50;;;7.70;1.00;;;;;;4990750;28;20203;-87
2023/05/04 02:18:30;;;;;;;6.57;4.70;;;8.00;1.00;;;;;;4973997;28;20202;-87
2023/05/04 02:20:57;;;;;;;7.47;4.67;;;8.10;1.00;;;;;;4970843;28;20199;-85
2023/05/04 02:23:25;;;;;;;8.03;4.60;;;8.10;1.00;;;;;;4968725;28;20200;-87
2023/05/04 02:25:54;;;;;;;8.17;4.93;;;7.90;1.00;;;;;;4965915;28;20237;-88
2023/05/04 02:28:21;;;;;;;8.73;4.80;;;7.80;1.00;;;;;;4972065;28;20219;-87
2023/05/04 02:30:49;;;;;;;6.50;4.90;;;7.60;1.00;;;;;;4969913;28;20229;-85
2023/05/04 02:33:16;;;;;;;11.27;5.00;;;7.40;1.00;;;;;;4971965;28;20352;-83
2023/05/04 02:35:45;;;;;;;7.23;4.87;;;7.30;1.00;;;;;;4968458;28;20198;-82
2023/05/04 02:38:12;;;;;;;10.47;5.07;;;7.20;1.00;;;;;;4956027;28;20281;-85
2023/05/04 02:40:40;;;;;;;11.77;4.40;;;7.20;1.00;;;;;;4989074;28;20268;-84
2023/05/04 02:43:07;;;;;;;7.73;5.00;;;7.20;1.00;;;;;;4969100;28;20205;-86
2023/05/04 02:45:38;;;;;;;8.73;5.30;;;7.20;1.00;;;;;;4975419;28;20207;-80
2023/05/04 02:48:05;;;;;;;8.97;4.97;;;7.10;1.00;;;;;;4980033;28;20214;-80
2023/05/04 02:50:32;;;;;;;8.07;5.60;;;7.00;1.00;;;;;;4978399;28;20218;-79
2023/05/04 02:52:59;;;;;;;9.80;5.20;;;7.00;1.00;;;;;;4952055;28;20191;-77
2023/05/04 02:55:26;;;;;;;11.40;5.43;;;7.00;1.00;;;;;;4978357;28;20226;-79
2023/05/04 02:57:53;;;;;;;10.70;5.37;;;6.90;1.00;;;;;;4954610;28;20198;-79
2023/05/04 03:00:21;;;;;;;6.13;5.37;;;6.90;1.00;;;;;;4978646;28;20198;-80
2023/05/04 03:02:48;;;;;;;7.27;5.07;;;6.90;1.00;;;;;;4962547;28;20746;-78
2023/05/04 03:05:15;;;;;;;8.70;4.73;;;6.90;1.00;;;;;;4969804;28;20230;-81
2023/05/04 03:07:44;;;;;;;6.30;5.07;;;6.80;1.00;;;;;;4983527;28;20658;-79
2023/05/04 03:10:13;;;;;;;8.00;4.63;;;6.90;1.00;;;;;;4967589;28;20214;-79
2023/05/04 03:12:41;;;;;;;5.80;5.20;;;6.80;1.00;;;;;;4950764;28;20293;-79
2023/05/04 03:15:08;;;;;;;11.47;5.70;;;6.80;1.00;;;;;;4966062;28;20214;-80
2023/05/04 03:17:36;;;;;;;7.50;5.37;;;6.80;1.00;;;;;;4995286;28;20202;-79
2023/05/04 03:20:04;;;;;;;6.13;5.30;;;6.80;1.00;;;;;;4958282;28;20667;-80
2023/05/04 03:22:32;;;;;;;9.27;5.70;;;6.70;1.00;;;;;;4979406;28;20198;-78
2023/05/04 03:25:00;;;;;;;8.80;5.53;;;6.50;1.00;;;;;;4972883;28;20209;-80
2023/05/04 03:27:28;;;;;;;9.57;6.10;;;6.40;1.00;;;;;;4957985;28;20388;-78
2023/05/04 03:29:56;;;;;;;10.93;5.53;;;6.30;1.00;;;;;;4967789;28;20219;-77
2023/05/04 03:32:25;;;;;;;7.30;5.43;;;6.40;1.00;;;;;;4954344;28;20636;-79
2023/05/04 03:34:52;;;;;;;11.27;5.67;;;6.40;1.00;;;;;;4969251;28;20743;-77
2023/05/04 03:37:21;;;;;;;8.30;6.13;;;6.40;1.00;;;;;;4985149;28;20612;-77
2023/05/04 03:39:48;;;;;;;9.67;6.30;;;6.30;1.00;;;;;;4965374;28;20803;-77
2023/05/04 03:42:16;;;;;;;9.70;6.17;;;6.20;1.00;;;;;;4971623;28;20611;-77
2023/05/04 03:44:42;;;;;;;9.63;6.83;;;6.10;1.00;;;;;;4985616;28;20225;-78
2023/05/04 03:47:10;;;;;;;9.07;6.33;;;6.00;1.00;;;;;;5002273;28;20202;-76
2023/05/04 03:49:36;;;;;;;10.43;7.07;;;6.00;1.00;;;;;;4956183;28;20215;-77
2023/05/04 03:52:05;;;;;;;9.23;6.40;;;6.00;1.00;;;;;;4966659;28;20205;-77
2023/05/04 03:54:32;;;;;;;10.73;6.77;;;6.00;1.00;;;;;;4993125;28;20209;-77
2023/05/04 03:57:01;;;;;;;10.23;6.93;;;6.10;1.00;;;;;;4981888;28;20649;-77
2023/05/04 03:59:28;;;;;;;10.50;7.53;;;6.10;1.00;;;;;;4968489;28;20252;-77
2023/05/04 04:01:55;;;;;;;10.40;7.03;;;6.10;1.00;;;;;;4968990;28;20191;-77
2023/05/04 04:04:22;;;;;;;10.67;6.97;;;6.10;1.00;;;;;;4977096;28;20245;-80
2023/05/04 04:06:50;;;;;;;9.40;6.73;;;6.10;1.00;;;;;;4952395;28;20249;-79
2023/05/04 04:09:18;;;;;;;9.57;6.90;;;6.20;1.00;;;;;;4957735;28;20583;-80
2023/05/04 04:11:46;;;;;;;12.63;6.87;;;6.30;1.00;;;;;;4977964;28;20201;-83
2023/05/04 04:14:13;;;;;;;8.03;6.30;;;6.40;1.00;;;;;;4966219;28;20189;-81
2023/05/04 04:16:40;;;;;;;8.07;6.40;;;6.40;1.00;;;;;;4969402;28;20202;-81
2023/05/04 04:19:08;;;;;;;8.07;6.33;;;6.50;1.00;;;;;;4948441;28;20684;-81
2023/05/04 04:21:35;;;;;;;12.90;6.83;;;6.60;1.00;;;;;;4972128;28;20195;-81
2023/05/04 04:24:02;;;;;;;11.90;6.40;;;6.80;1.00;;;;;;4941531;28;20221;-77
2023/05/04 04:26:30;;;;;;;11.77;6.43;;;6.80;1.00;;;;;;4962939;28;20757;-80
2023/05/04 04:28:58;;;;;;;6.97;6.07;;;6.90;1.00;;;;;;4949865;28;20230;-79
2023/05/04 04:31:25;;;;;;;8.80;6.50;;;7.10;1.00;;;;;;4964916;28;20293;-78
2023/05/04 04:33:52;;;;;;;7.63;6.17;;;7.30;1.00;;;;;;4956532;28;20207;-80
2023/05/04 04:36:19;;;;;;;9.90;6.23;;;7.40;1.00;;;;;;4974571;28;20205;-78
2023/05/04 04:38:49;;;;;;;10.40;5.83;;;7.50;1.00;;;;;;4963685;28;20202;-78
2023/05/04 04:41:18;;;;;;;7.00;5.63;;;7.60;1.00;;;;;;4982395;28;20504;-80
2023/05/04 04:43:46;;;;;;;12.37;6.63;;;7.60;1.00;;;;;;4992672;28;20210;-80
2023/05/04 04:46:13;;;;;;;8.23;5.90;;;7.70;1.00;;;;;;4964712;28;20202;-81
2023/05/04 04:48:41;;;;;;;9.10;6.17;;;7.80;1.00;;;;;;4983775;28;20221;-81
2023/05/04 04:51:14;;;;;;;10.83;5.60;;;7.90;1.00;;;;;;4964637;28;20679;-81
2023/05/04 04:53:41;;;;;;;7.40;5.60;;;8.00;1.00;;;;;;4983524;28;20574;-82
2023/05/04 04:56:09;;;;;;;9.43;5.53;;;8.10;1.00;;;;;;4962405;28;20825;-82
2023/05/04 04:58:36;;;;;;;13.07;5.80;;;8.20;1.00;;;;;;4965741;28;20197;-81
2023/05/04 05:01:04;;;;;;;9.83;5.73;;;8.30;1.00;;;;;;4998764;28;20272;-79
2023/05/04 05:03:31;;;;;;;7.90;5.70;;;8.60;1.00;;;;;;4969528;28;20563;-82
2023/05/04 05:06:00;;;;;;;6.33;5.33;;;8.60;1.00;;;;;;4956163;28;20238;-80
2023/05/04 05:08:35;;;;;;;8.53;5.93;;;8.70;1.00;;;;;;4968616;28;20224;-81
2023/05/04 05:11:02;;;;;;;10.87;6.30;;;8.60;1.00;;;;;;4983025;28;20187;-83
2023/05/04 05:13:31;;;;;;;8.13;5.77;;;8.60;1.00;;;;;;4965431;28;20202;-80
2023/05/04 05:16:02;;;;;;;11.63;6.10;;;8.50;1.00;;;;;;4953900;28;20647;-83
2023/05/04 05:18:30;;;;;;;9.43;6.07;;;8.50;1.00;;;;;;4952550;28;20243;-78
2023/05/04 05:20:57;;;;;;;8.37;6.57;;;8.70;1.00;;;;;;4986022;28;21069;-80
2023/05/04 05:23:24;;;;;;;9.33;6.13;;;8.80;1.00;;;;;;4960675;28;20218;-80
2023/05/04 05:25:54;;;;;;;8.73;6.00;;;8.70;1.00;;;;;;4985143;28;21411;-83
2023/05/04 05:28:21;;;;;;;10.20;6.83;;;8.80;1.00;;;;;;4978279;28;20215;-79
2023/05/04 05:30:50;;;;;;;8.93;7.00;;;9.00;1.00;;;;;;4978797;28;20201;-79
2023/05/04 05:33:19;;;;;;;13.20;7.07;;;9.20;1.00;;;;;;4965291;28;20628;-76
2023/05/04 05:35:48;;;;;;;12.90;7.07;;;9.30;1.00;;;;;;4970005;28;20214;-77
2023/05/04 05:38:17;;;;;;;10.20;7.00;;;9.40;1.00;;;;;;4964331;28;20607;-81
2023/05/04 05:40:44;;;;;;;7.50;5.87;;;9.30;1.00;;;;;;4955588;28;20249;-79
2023/05/04 05:43:12;;;;;;;9.20;6.17;;;9.70;1.00;;;;;;4958734;28;20207;-78
2023/05/04 05:45:39;;;;;;;6.40;5.50;;;10.30;1.00;;;;;;4958932;28;20589;-78
2023/05/04 05:48:07;;;;;;;10.67;8.17;;;10.90;1.00;;;;;;4969474;28;20203;-78
2023/05/04 05:50:35;;;;;;;9.47;5.67;;;11.70;1.00;;;;;;4956780;28;20680;-78
2023/05/04 05:53:02;;;;;;;10.90;8.17;;;12.70;1.00;;;;;;4940057;28;20190;-77
2023/05/04 05:55:29;;;;;;;13.90;9.93;;;14.20;1.00;;;;;;4971163;28;20207;-80
2023/05/04 05:57:56;;;;;;;12.45;9.48;;;15.90;1.00;;;;;;4985696;28;20218;-76
2023/05/04 06:00:23;;;;;;;10.85;6.10;;;17.60;1.00;;;;;;4967395;28;20233;-76
2023/05/04 06:02:51;;;;;;;15.57;9.48;;;17.60;1.00;;;;;;4962388;28;20195;-79
2023/05/04 06:05:18;;;;;;;10.77;6.65;;;17.10;1.00;;;;;;4986979;28;20244;-77
2023/05/04 06:07:46;;;;;;;4.85;4.35;;;17.20;1.00;;;;;;4983991;28;20240;-79
2023/05/04 06:10:15;;;;;;;10.52;5.93;;;17.40;1.00;;;;;;4989013;28;20233;-78
2023/05/04 06:12:42;;;;;;;10.57;8.27;;;18.90;1.00;;;;;;4967560;28;20226;-79
2023/05/04 06:15:10;;;;;;;30.30;18.02;;;19.80;1.00;;;;;;4960875;28;20194;-81
2023/05/04 06:17:38;;;;;;;12.23;9.93;;;19.30;1.00;;;;;;4974705;28;20297;-79
2023/05/04 06:20:06;;;;;;;27.73;22.52;;;17.70;1.00;;;;;;4984281;28;20550;-78
2023/05/04 06:22:33;;;;;;;16.98;10.35;;;17.30;1.00;;;;;;4965066;28;20204;-80
2023/05/04 06:25:00;;;;;;;17.88;14.45;;;17.90;1.00;;;;;;4978817;28;20233;-78
2023/05/04 06:27:33;;;;;;;9.70;4.03;;;19.30;1.00;;;;;;4982236;28;20190;-77
2023/05/04 06:30:00;;;;;;;11.20;8.13;;;19.90;1.00;;;;;;4972781;28;20693;-77
2023/05/04 06:32:28;;;;;;;6.28;3.80;;;20.20;1.00;;;;;;4971703;28;20221;-78
2023/05/04 06:34:55;;;;;;;6.05;4.13;;;20.20;1.00;;;;;;4970173;28;20201;-77
2023/05/04 06:37:22;;;;;;;6.40;3.78;;;19.70;1.00;;;;;;4983984;28;20954;-76
2023/05/04 06:39:49;;;;;;;10.30;4.32;;;19.90;1.00;;;;;;4970123;28;20728;-78
2023/05/04 06:42:16;;;;;;;10.88;4.95;;;18.70;1.00;;;;;;4986128;28;20226;-76
2023/05/04 06:44:47;;;;;;;8.32;4.20;;;17.80;1.00;;;;;;4968967;28;20206;-77
2023/05/04 06:47:14;;;;;;;9.45;4.38;;;18.40;1.00;;;;;;4953052;28;20292;-78
2023/05/04 06:49:41;;;;;;;7.10;4.43;;;17.80;1.00;;;;;;4954418;28;20244;-78
2023/05/04 06:52:09;;;;;;;8.55;4.85;;;18.30;1.00;;;;;;4954356;28;20244;-79
2023/05/04 06:54:36;;;;;;;6.18;3.97;;;18.90;1.00;;;;;;4972403;28;20206;-78
2023/05/04 06:57:03;;;;;;;7.28;5.57;;;18.70;1.00;;;;;;4969880;28;20201;-76
2023/05/04 06:59:30;;;;;;;11.70;3.97;;;19.60;1.00;;;;;;4970658;28;20276;-76
2023/05/04 07:01:57;;;;;;;11.02;4.63;;;19.90;1.00;;;;;;4989057;28;20209;-76
2023/05/04 07:04:24;;;;;;;8.88;3.90;;;20.10;1.00;;;;;;4989362;28;20597;-79
2023/05/04 07:06:52;;;;;;;7.25;4.18;;;19.80;1.00;;;;;;4970076;28;20208;-77
2023/05/04 07:09:20;;;;;;;8.68;4.10;;;19.80;1.00;;;;;;4971881;28;20245;-77
2023/05/04 07:11:47;;;;;;;8.57;4.10;;;18.70;1.00;;;;;;4988605;28;20256;-79
2023/05/04 07:14:15;;;;;;;5.35;3.85;;;18.50;1.00;;;;;;4982911;28;20677;-78
2023/05/04 07:16:42;;;;;;;7.90;5.20;;;18.30;1.00;;;;;;4983980;28;20208;-81
2023/05/04 07:19:09;;;;;;;6.10;4.88;;;18.50;1.00;;;;;;4973275;28;20690;-81
2023/05/04 07:21:36;;;;;;;6.63;3.78;;;18.80;1.00;;;;;;4996470;28;20201;-77
2023/05/04 07:24:05;;;;;;;6.88;4.40;;;18.60;1.00;;;;;;4999556;28;20612;-82
2023/05/04 07:26:33;;;;;;;7.78;4.72;;;17.50;1.00;;;;;;5001095;28;20573;-84
2023/05/04 07:29:00;;;;;;;9.55;4.15;;;18.10;1.00;;;;;;4966500;28;20692;-84
2023/05/04 07:31:27;;;;;;;4.38;3.97;;;18.30;1.00;;;;;;4996750;28;20268;-84
2023/05/04 07:33:56;;;;;;;8.73;4.10;;;18.70;1.00;;;;;;4980052;28;20251;-83
2023/05/04 07:36:25;;;;;;;9.27;3.85;;;19.00;1.00;;;;;;4997275;28;20289;-85
2023/05/04 07:38:53;;;;;;;7.50;3.72;;;18.80;1.00;;;;;;4963386;28;20558;-85
2023/05/04 07:41:20;;;;;;;5.70;3.92;;;19.50;1.00;;;;;;4978653;28;20192;-79
2023/05/04 07:43:47;;;;;;;6.65;3.55;;;19.40;1.00;;;;;;4982822;28;20205;-81
2023/05/04 07:46:15;;;;;;;10.00;4.18;;;20.10;1.00;;;;;;4980101;28;20213;-79
2023/05/04 07:48:42;;;;;;;7.72;4.00;;;20.00;1.00;;;;;;4976854;28;20193;-76
2023/05/04 07:51:13;;;;;;;6.03;3.85;;;22.00;1.00;;;;;;4979946;28;20221;-78
2023/05/04 07:53:41;;;;;;;6.43;3.75;;;22.50;1.00;;;;;;4993404;28;20193;-76
2023/05/04 07:56:11;;;;;;;5.88;4.13;;;21.50;1.00;;;;;;4982960;28;20189;-77
2023/05/04 07:58:38;;;;;;;6.68;3.67;;;22.30;1.00;;;;;;4983125;28;20193;-76
2023/05/04 08:01:05;;;;;;;5.80;3.50;;;21.80;1.00;;;;;;4967122;28;20566;-77
2023/05/04 08:03:32;;;;;;;6.53;3.78;;;21.50;1.00;;;;;;4979330;28;20245;-79
2023/05/04 08:06:00;;;;;;;5.38;3.17;;;21.90;1.00;;;;;;4977363;28;20559;-78
2023/05/04 08:08:28;;;;;;;6.47;3.92;;;21.90;1.00;;;;;;4958199;28;20671;-80
2023/05/04 08:10:55;;;;;;;5.72;3.72;;;20.60;1.00;;;;;;4975335;28;20217;-79
2023/05/04 08:13:39;;;;;;;4.50;3.47;;;21.70;1.00;;;;;;4989779;28;20288;-79
2023/05/04 08:16:10;;;;;;;6.50;3.50;;;22.00;1.00;;;;;;4977726;28;20224;-80
2023/05/04 08:18:37;;;;;;;5.00;3.70;;;21.80;1.00;;;;;;4986977;28;20201;-79
2023/05/04 08:21:05;;;;;;;8.27;3.80;;;23.20;1.00;;;;;;4974500;28;20213;-76
2023/05/04 08:23:32;;;;;;;12.32;4.30;;;24.10;1.00;;;;;;4965685;28;20709;-76
2023/05/04 08:26:04;;;;;;;5.80;3.80;;;25.80;1.00;;;;;;4966381;28;20695;-76
2023/05/04 08:28:38;;;;;;;8.55;4.13;;;26.10;1.00;;;;;;4977787;28;20236;-77
2023/05/04 08:31:05;;;;;;;7.97;3.85;;;26.20;1.00;;;;;;4982038;28;20248;-76
2023/05/04 08:33:33;;;;;;;4.75;3.55;;;26.00;1.00;;;;;;4983019;28;20593;-77
2023/05/04 08:36:00;;;;;;;5.63;4.35;;;26.10;1.00;;;;;;4980223;28;20194;-77
2023/05/04 08:38:28;;;;;;;6.38;4.03;;;28.10;1.00;;;;;;4974830;28;20681;-75
2023/05/04 08:40:56;;;;;;;7.15;4.72;;;29.00;1.00;;;;;;4978288;28;20202;-78
2023/05/04 08:43:23;;;;;;;8.10;5.22;;;27.40;1.00;;;;;;4969116;28;20205;-75
2023/05/04 08:45:50;;;;;;;9.18;4.38;;;27.40;1.00;;;;;;4979066;28;20236;-75
2023/05/04 08:48:17;;;;;;;8.30;4.28;;;28.10;1.00;;;;;;4966312;28;20662;-73
2023/05/04 08:50:45;;;;;;;10.43;4.57;;;27.90;1.00;;;;;;4977309;28;20225;-77
2023/05/04 08:53:13;;;;;;;8.63;4.43;;;27.50;1.00;;;;;;4974462;28;20279;-77
2023/05/04 08:55:42;;;;;;;7.25;4.53;;;28.40;1.00;;;;;;4980884;28;20202;-78
2023/05/04 08:58:11;;;;;;;7.75;4.30;;;26.20;1.00;;;;;;4960653;28;20236;-80
2023/05/04 09:00:39;;;;;;;9.80;4.70;;;26.60;1.00;;;;;;4997497;28;20656;-79
2023/05/04 09:03:09;;;;;;;7.22;3.97;;;25.30;1.00;;;;;;4981114;28;20673;-78
2023/05/04 09:05:37;;;;;;;8.15;4.43;;;25.80;1.00;;;;;;4999073;28;20197;-80
2023/05/04 09:08:05;;;;;;;5.95;4.00;;;25.90;1.00;;;;;;4976307;28;20208;-80
2023/05/04 09:10:32;;;;;;;9.48;4.13;;;26.60;1.00;;;;;;4998493;28;20205;-80
2023/05/04 09:13:03;;;;;;;9.20;4.10;;;26.10;1.00;;;;;;4986498;28;20220;-80
2023/05/04 09:15:31;;;;;;;12.15;4.97;;;27.00;1.00;;;;;;4958199;28;20670;-79
2023/05/04 09:18:02;;;;;;;5.05;3.90;;;28.50;1.00;;;;;;4989588;28;20346;-76
2023/05/04 09:20:30;;;;;;;7.72;4.55;;;30.30;1.00;;;;;;4995739;28;20660;-76
2023/05/04 09:23:06;;;;;;;8.80;4.25;;;30.70;1.00;;;;;;4981935;28;20197;-77
2023/05/04 09:25:44;;;;;;;7.07;4.93;;;27.50;1.00;;;;;;4986928;28;20217;-77
2023/05/04 09:28:11;;;;;;;6.10;4.03;;;28.50;1.00;;;;;;4984115;28;20284;-77
2023/05/04 09:30:38;;;;;;;7.25;4.05;;;30.50;1.00;;;;;;4970789;28;20308;-76
2023/05/04 09:33:05;;;;;;;10.18;3.92;;;32.50;1.00;;;;;;4985361;28;20229;-74
2023/05/04 09:35:32;;;;;;;5.63;3.90;;;31.60;1.00;;;;;;4968805;28;20715;-75
2023/05/04 09:38:00;;;;;;;8.93;3.63;;;31.30;1.00;;;;;;4988723;28;20681;-75
2023/05/04 09:40:35;;;;;;;7.55;4.15;;;30.50;1.00;;;;;;4984289;28;20272;-78
2023/05/04 09:43:03;;;;;;;5.22;3.95;;;29.40;1.00;;;;;;4984065;28;20243;-75
2023/05/04 09:45:49;;;;;;;9.20;3.95;;;30.50;1.00;;;;;;4993107;28;20200;-76
2023/05/04 09:48:18;;;;;;;7.50;4.47;;;31.60;1.00;;;;;;5001538;28;20193;-75
2023/05/04 09:50:59;;;;;;;7.00;4.25;;;28.40;1.00;;;;;;5002230;28;20292;-74
2023/05/04 09:53:28;;;;;;;9.18;4.22;;;28.20;1.00;;;;;;4986897;28;20189;-76
2023/05/04 09:56:04;;;;;;;6.65;4.15;;;27.20;1.00;;;;;;4998382;28;20810;-76
2023/05/04 09:58:35;;;;;;;11.77;4.40;;;26.00;1.00;;;;;;5002404;28;20200;-76
2023/05/04 10:01:02;;;;;;;7.80;4.45;;;26.60;1.00;;;;;;5004062;28;20323;-76
2023/05/04 10:03:30;;;;;;;6.80;4.28;;;26.80;1.00;;;;;;4998000;28;20279;-76
2023/05/04 10:05:59;;;;;;;7.85;4.88;;;27.70;1.00;;;;;;5000694;28;20192;-76
2023/05/04 10:08:27;;;;;;;8.23;4.60;;;29.00;1.00;;;;;;4971755;28;20197;-76
2023/05/04 10:10:55;;;;;;;8.07;4.30;;;29.70;1.00;;;;;;4993210;28;20256;-78
2023/05/04 10:13:23;;;;;;;6.72;4.70;;;30.60;1.00;;;;;;4999926;28;20227;-75
2023/05/04 10:16:00;;;;;;;6.70;4.15;;;28.40;1.00;;;;;;4985157;28;20606;-78
2023/05/04 10:18:57;;;;;;;6.88;4.53;;;27.90;1.00;;;;;;5004061;28;20201;-77
2023/05/04 10:21:29;;;;;;;5.68;4.00;;;28.10;1.00;;;;;;4997473;28;20212;-76
2023/05/04 10:24:20;;;;;;;6.50;4.50;;;27.40;1.00;;;;;;5000870;28;20189;-75
2023/05/04 10:26:58;;;;;;;6.32;4.45;;;27.70;1.00;;;;;;4999905;28;20196;-77
2023/05/04 10:29:27;;;;;;;9.57;4.47;;;27.00;1.00;;;;;;5002941;28;20192;-76
2023/05/04 10:31:55;;;;;;;5.05;4.13;;;28.30;1.00;;;;;;4988145;28;20220;-76
2023/05/04 10:34:31;;;;;;;5.90;4.60;;;28.10;1.00;;;;;;5000148;28;20188;-75
2023/05/04 10:37:00;;;;;;;7.40;4.88;;;27.00;1.00;;;;;;4966936;28;20214;-77
2023/05/04 10:39:32;;;;;;;6.38;4.45;;;26.30;1.00;;;;;;5001765;28;20929;-78
2023/05/04 10:42:04;;;;;;;7.63;3.78;;;26.30;1.00;;;;;;4993924;28;20356;-77
2023/05/04 10:44:33;;;;;;;9.25;4.10;;;27.70;1.00;;;;;;4994073;28;20194;-78
2023/05/04 10:47:07;;;;;;;7.07;4.32;;;26.20;1.00;;;;;;4980960;28;20216;-77
2023/05/04 10:49:34;;;;;;;8.02;4.00;;;25.80;1.00;;;;;;5001808;28;20184;-77
2023/05/04 10:52:15;;;;;;;6.55;4.40;;;25.70;1.00;;;;;;4999022;28;20248;-79
2023/05/04 10:54:42;;;;;;;6.88;4.15;;;24.40;1.00;;;;;;4987449;28;20661;-78
2023/05/04 10:57:12;;;;;;;6.60;3.13;;;26.40;1.00;;;;;;4995329;28;20696;-75
2023/05/04 10:59:40;;;;;;;5.25;3.28;;;27.10;1.00;;;;;;4993758;28;20213;-78
2023/05/04 11:02:08;;;;;;;5.80;2.60;;;26.80;1.00;;;;;;4967565;28;20739;-79
2023/05/04 11:04:36;;;;;;;6.65;2.83;;;26.50;1.00;;;;;;4968810;28;20716;-76
2023/05/04 11:07:05;;;;;;;3.90;2.80;;;27.00;1.00;;;;;;4980012;28;20193;-77
2023/05/04 11:09:43;;;;;;;3.42;2.65;;;26.70;1.00;;;;;;4980133;28;20230;-76
2023/05/04 11:12:13;;;;;;;4.63;2.92;;;26.00;1.00;;;;;;4965703;28;20292;-75
2023/05/04 11:14:41;;;;;;;6.28;3.63;;;26.40;1.00;;;;;;4994429;28;20225;-78
2023/05/04 11:17:09;;;;;;;4.15;3.55;;;25.40;1.00;;;;;;4985875;28;20204;-78
2023/05/04 11:19:52;;;;;;;4.80;3.90;;;25.40;1.00;;;;;;4979996;28;21656;-77
2023/05/04 11:22:20;;;;;;;5.57;3.42;;;24.60;1.00;;;;;;4961785;28;20204;-78
2023/05/04 11:24:50;;;;;;;6.97;3.40;;;24.60;1.00;;;;;;4949804;28;20812;-78
2023/05/04 11:27:27;;;;;;;5.22;3.60;;;24.60;1.00;;;;;;4988590;28;20189;-78
2023/05/04 11:30:00;;;;;;;4.07;3.42;;;24.30;1.00;;;;;;4969995;28;20785;-78
2023/05/04 11:32:35;;;;;;;6.97;3.80;;;24.80;1.00;;;;;;4987828;28;20202;-78
2023/05/04 11:35:08;;;;;;;6.63;3.63;;;25.30;1.00;;;;;;4961819;28;20197;-79
2023/05/04 11:37:41;;;;;;;5.07;3.78;;;25.40;1.00;;;;;;4987140;28;20201;-77
2023/05/04 11:40:15;;;;;;;6.32;3.40;;;25.30;1.00;;;;;;4970782;28;20230;-77
2023/05/04 11:42:43;;;;;;;5.35;3.80;;;26.40;1.00;;;;;;4971183;28;20655;-76
2023/05/04 11:45:25;;;;;;;4.10;3.53;;;26.20;1.00;;;;;;4970054;28;20696;-76
2023/05/04 11:47:55;;;;;;;7.57;3.83;;;25.90;1.00;;;;;;4982719;28;20205;-75
2023/05/04 11:50:24;;;;;;;5.20;3.47;;;26.50;1.00;;;;;;4986626;28;20283;-76
2023/05/04 11:53:12;;;;;;;5.85;3.55;;;26.70;1.00;;;;;;4967204;28;20205;-76
2023/05/04 11:55:40;;;;;;;6.20;4.20;;;26.10;1.00;;;;;;4954435;28;20695;-77
2023/05/04 11:58:10;;;;;;;7.00;4.32;;;26.40;1.00;;;;;;4971234;28;20233;-77
2023/05/04 12:00:44;;;;;;;6.03;2.90;;;26.30;1.00;;;;;;4970086;28;20205;-78
2023/05/04 12:03:13;;;;;;;5.70;4.18;;;26.20;1.00;;;;;;4973820;28;20790;-77
2023/05/04 12:05:52;;;;;;;7.70;4.97;;;25.60;1.00;;;;;;4974049;28;20276;-79
2023/05/04 12:08:33;;;;;;;6.82;4.13;;;24.60;1.00;;;;;;4971830;28;20566;-77
2023/05/04 12:11:24;;;;;;;7.47;4.70;;;24.90;1.00;;;;;;4982004;28;20219;-77
2023/05/04 12:14:15;;;;;;;6.78;4.32;;;24.30;1.00;;;;;;4952953;28;20824;-77
2023/05/04 12:16:53;;;;;;;5.45;4.50;;;25.20;1.00;;;;;;4973370;28;20272;-77
2023/05/04 12:19:22;;;;;;;9.02;4.68;;;25.40;1.00;;;;;;4986149;28;20703;-77
2023/05/04 12:21:51;;;;;;;8.40;4.90;;;25.00;1.00;;;;;;4972812;28;20228;-78
2023/05/04 12:24:21;;;;;;;6.70;4.47;;;24.50;1.00;;;;;;4971744;28;20193;-78
2023/05/04 12:26:49;;;;;;;5.40;4.90;;;24.20;1.00;;;;;;4973903;28;20225;-78
2023/05/04 12:29:16;;;;;;;7.95;4.60;;;24.30;1.00;;;;;;4939903;28;20657;-77
2023/05/04 12:31:44;;;;;;;8.57;4.30;;;24.20;1.00;;;;;;4973335;28;20564;-77
2023/05/04 12:34:14;;;;;;;9.27;5.50;;;24.00;1.00;;;;;;4973121;28;20201;-78
2023/05/04 12:36:41;;;;;;;5.82;4.57;;;23.50;1.00;;;;;;4975616;28;20221;-79
2023/05/04 12:39:09;;;;;;;7.65;4.78;;;23.80;1.00;;;;;;4972943;28;20297;-78
2023/05/04 12:41:36;;;;;;;5.82;4.25;;;23.40;1.00;;;;;;4974125;28;20287;-78
2023/05/04 12:44:03;;;;;;;8.23;4.80;;;23.30;1.00;;;;;;4972464;28;20198;-77
2023/05/04 12:46:32;;;;;;;8.80;5.20;;;23.00;1.00;;;;;;4972532;28;20217;-77
2023/05/04 12:48:59;;;;;;;8.48;4.82;;;22.90;1.00;;;;;;4988661;28;20228;-80
2023/05/04 12:51:26;;;;;;;6.88;5.07;;;23.10;1.00;;;;;;4953570;28;20226;-77
2023/05/04 12:53:56;;;;;;;6.72;4.72;;;23.20;1.00;;;;;;4992494;28;20194;-80
2023/05/04 12:56:24;;;;;;;8.05;4.55;;;23.20;1.00;;;;;;4974157;28;20299;-78
2023/05/04 12:58:50;;;;;;;7.75;4.57;;;23.20;1.00;;;;;;4973164;28;20243;-79
2023/05/04 13:01:18;;;;;;;6.13;4.82;;;22.60;1.00;;;;;;4989977;28;20213;-79
2023/05/04 13:03:45;;;;;;;8.07;4.75;;;22.60;1.00;;;;;;4973334;28;20252;-79
2023/05/04 13:06:12;;;;;;;8.80;4.35;;;22.50;1.00;;;;;;4973171;28;20205;-77
2023/05/04 13:08:39;;;;;;;6.88;5.05;;;22.80;1.00;;;;;;4984776;28;20194;-76
2023/05/04 13:11:06;;;;;;;4.72;3.83;;;22.70;1.00;;;;;;4971317;28;20717;-78